createdAt,value
2023-08-07T00:02:27.404Z,80.29
2023-08-07T00:04:54.702Z,80.40
2023-08-07T00:07:21.870Z,80.34
2023-08-07T00:09:49.329Z,80.21
2023-08-07T00:12:17.201Z,80.02
2023-08-07T00:14:49.173Z,79.89
2023-08-07T00:17:16.529Z,80.15
2023-08-07T00:19:47.682Z,80.17
2023-08-07T00:22:14.741Z,80.48
2023-08-07T00:24:41.883Z,80.83
2023-08-07T00:27:11.389Z,80.94
2023-08-07T00:29:38.644Z,81.04
2023-08-07T00:32:06.552Z,81.17
2023-08-07T00:34:33.670Z,81.08
2023-08-07T00:37:00.732Z,81.18
2023-08-07T00:39:28.703Z,81.44
2023-08-07T00:41:55.957Z,81.66
2023-08-07T00:44:24.751Z,82.10
2023-08-07T00:46:52.329Z,82.46
2023-08-07T00:49:21.319Z,82.39
2023-08-07T00:51:49.189Z,82.36
2023-08-07T00:54:19.949Z,82.47
2023-08-07T00:56:47.581Z,82.34
2023-08-07T00:59:16.613Z,82.20
2023-08-07T01:01:43.744Z,82.28
2023-08-07T01:04:10.994Z,82.51
2023-08-07T01:06:38.056Z,82.59
2023-08-07T01:09:05.506Z,82.68
2023-08-07T01:11:49.963Z,82.71
2023-08-07T01:14:35.841Z,82.60
2023-08-07T01:17:06.650Z,82.39
2023-08-07T01:19:36.089Z,82.26
2023-08-07T01:22:07.441Z,82.45
2023-08-07T01:24:39.816Z,82.91
2023-08-07T01:27:18.911Z,83.01
2023-08-07T01:30:08.133Z,83.22
2023-08-07T01:33:13.017Z,83.35
2023-08-07T01:35:47.746Z,83.79
2023-08-07T01:38:16.032Z,83.78
2023-08-07T01:40:44.234Z,83.77
2023-08-07T01:43:11.371Z,83.66
2023-08-07T01:45:38.871Z,83.63
2023-08-07T01:48:05.861Z,83.68
2023-08-07T01:50:33.155Z,84.16
2023-08-07T01:53:00.191Z,84.14
2023-08-07T01:55:27.449Z,84.42
2023-08-07T01:57:54.544Z,84.47
2023-08-07T02:00:22.687Z,84.69
2023-08-07T02:02:50.146Z,84.89
2023-08-07T02:05:17.723Z,84.92
2023-08-07T02:07:45.516Z,84.82
2023-08-07T02:10:12.951Z,84.94
2023-08-07T02:12:40.015Z,84.68
2023-08-07T02:15:08.014Z,84.74
2023-08-07T02:17:35.282Z,85.08
2023-08-07T02:20:02.239Z,85.24
2023-08-07T02:22:29.337Z,85.47
2023-08-07T02:24:56.385Z,85.58
2023-08-07T02:27:23.278Z,85.82
2023-08-07T02:29:52.343Z,86.17
2023-08-07T02:32:19.244Z,86.39
2023-08-07T02:34:46.954Z,86.49
2023-08-07T02:37:14.423Z,86.46
2023-08-07T02:39:42.597Z,86.23
2023-08-07T02:42:10.263Z,86.21
2023-08-07T02:44:37.216Z,86.70
2023-08-07T02:47:04.786Z,86.79
2023-08-07T02:49:31.888Z,87.01
2023-08-07T02:51:59.103Z,87.23
2023-08-07T02:54:25.989Z,87.45
2023-08-07T02:56:53.396Z,87.49
2023-08-07T02:59:20.762Z,87.63
2023-08-07T03:01:47.862Z,87.79
2023-08-07T03:04:15.038Z,87.93
2023-08-07T03:06:42.173Z,88.39
2023-08-07T03:09:09.239Z,88.58
2023-08-07T03:11:36.448Z,88.77
2023-08-07T03:14:04.848Z,88.65
2023-08-07T03:16:31.974Z,88.29
2023-08-07T03:18:59.031Z,88.06
2023-08-07T03:21:26.490Z,87.90
2023-08-07T03:23:53.496Z,87.74
2023-08-07T03:26:20.707Z,88.11
2023-08-07T03:28:50.133Z,88.34
2023-08-07T03:31:18.215Z,88.44
2023-08-07T03:33:46.469Z,88.68
2023-08-07T03:36:17.853Z,88.79
2023-08-07T03:38:44.723Z,88.79
2023-08-07T03:41:11.715Z,88.55
2023-08-07T03:43:39.794Z,88.56
2023-08-07T03:46:06.853Z,88.74
2023-08-07T03:48:34.285Z,88.89
2023-08-07T03:51:16.214Z,89.25
2023-08-07T03:53:47.248Z,89.35
2023-08-07T03:56:15.060Z,89.83
2023-08-07T03:58:43.099Z,89.99
2023-08-07T04:01:11.729Z,89.99
2023-08-07T04:03:39.955Z,89.95
2023-08-07T04:06:07.197Z,90.33
2023-08-07T04:08:34.385Z,90.38
2023-08-07T04:11:08.427Z,90.30
2023-08-07T04:13:35.956Z,90.17
2023-08-07T04:16:05.899Z,89.92
2023-08-07T04:18:35.048Z,89.96
2023-08-07T04:21:03.877Z,90.13
2023-08-07T04:23:32.921Z,90.33
2023-08-07T04:26:01.220Z,90.47
2023-08-07T04:28:31.695Z,90.62
2023-08-07T04:30:59.016Z,90.66
2023-08-07T04:33:26.193Z,90.68
2023-08-07T04:35:53.211Z,90.92
2023-08-07T04:38:20.961Z,91.01
2023-08-07T04:40:49.112Z,91.08
2023-08-07T04:43:17.579Z,90.86
2023-08-07T04:45:46.939Z,90.80
2023-08-07T04:48:14.955Z,90.59
2023-08-07T04:50:42.484Z,90.39
2023-08-07T04:53:09.588Z,90.31
2023-08-07T04:55:36.638Z,90.22
2023-08-07T04:58:03.795Z,90.43
2023-08-07T05:00:30.940Z,90.40
2023-08-07T05:02:58.078Z,90.45
2023-08-07T05:05:25.292Z,90.76
2023-08-07T05:07:52.543Z,90.96
2023-08-07T05:10:19.728Z,91.08
2023-08-07T05:12:46.766Z,91.05
2023-08-07T05:15:13.876Z,90.97
2023-08-07T05:17:41.572Z,90.85
2023-08-07T05:20:10.209Z,90.58
2023-08-07T05:22:38.996Z,90.82
2023-08-07T05:25:06.203Z,90.31
2023-08-07T05:27:33.259Z,90.01
2023-08-07T05:30:01.009Z,90.22
2023-08-07T05:32:29.581Z,90.74
2023-08-07T05:34:57.059Z,90.75
2023-08-07T05:37:24.056Z,90.56
2023-08-07T05:39:51.283Z,90.43
2023-08-07T05:42:18.236Z,90.44
2023-08-07T05:44:45.398Z,90.62
2023-08-07T05:47:12.435Z,90.16
2023-08-07T05:49:39.491Z,90.18
2023-08-07T05:52:07.619Z,90.42
2023-08-07T05:54:34.818Z,90.26
2023-08-07T05:57:02.279Z,90.14
2023-08-07T05:59:30.172Z,90.12
2023-08-07T06:01:59.812Z,90.01
2023-08-07T06:04:27.229Z,90.09
2023-08-07T06:06:54.275Z,89.79
2023-08-07T06:09:22.976Z,89.97
2023-08-07T06:11:50.056Z,89.48
2023-08-07T06:14:17.754Z,89.36
2023-08-07T06:16:44.998Z,89.72
2023-08-07T06:19:25.253Z,89.74
2023-08-07T06:21:58.488Z,89.68
2023-08-07T06:24:27.244Z,89.62
2023-08-07T06:26:54.543Z,89.72
2023-08-07T06:29:21.501Z,89.85
2023-08-07T06:31:48.913Z,89.86
2023-08-07T06:34:16.130Z,90.05
2023-08-07T06:36:43.268Z,90.08
2023-08-07T06:39:10.331Z,89.93
2023-08-07T06:41:40.140Z,89.85
2023-08-07T06:44:07.873Z,89.90
2023-08-07T06:46:35.066Z,89.69
2023-08-07T06:49:02.547Z,89.42
2023-08-07T06:51:29.685Z,89.75
2023-08-07T06:53:56.746Z,90.02
2023-08-07T06:56:23.996Z,89.86
2023-08-07T06:58:51.354Z,89.92
2023-08-07T07:01:18.367Z,89.76
2023-08-07T07:03:48.426Z,89.99
2023-08-07T07:06:15.632Z,89.96
2023-08-07T07:08:42.792Z,90.05
2023-08-07T07:11:09.838Z,90.11
2023-08-07T07:13:37.307Z,90.35
2023-08-07T07:16:04.882Z,90.39
2023-08-07T07:18:31.911Z,90.26
2023-08-07T07:21:02.932Z,90.33
2023-08-07T07:23:30.188Z,90.15
2023-08-07T07:25:58.794Z,89.85
2023-08-07T07:28:25.917Z,89.54
2023-08-07T07:30:52.969Z,89.26
2023-08-07T07:33:20.128Z,88.81
2023-08-07T07:35:47.334Z,88.13
2023-08-07T07:38:15.200Z,88.43
2023-08-07T07:40:42.972Z,88.40
2023-08-07T07:43:10.081Z,88.33
2023-08-07T07:45:37.331Z,87.71
2023-08-07T07:48:05.648Z,87.52
2023-08-07T07:50:32.840Z,87.65
2023-08-07T07:52:59.885Z,87.56
2023-08-07T07:55:27.601Z,87.61
2023-08-07T07:57:56.660Z,87.71
2023-08-07T08:00:28.078Z,87.81
2023-08-07T08:02:55.556Z,87.98
2023-08-07T08:05:23.214Z,88.12
2023-08-07T08:07:50.234Z,88.31
2023-08-07T08:10:17.865Z,88.45
2023-08-07T08:12:45.019Z,88.52
2023-08-07T08:15:12.215Z,88.74
2023-08-07T08:17:40.387Z,88.88
2023-08-07T08:20:09.078Z,88.91
2023-08-07T08:22:36.532Z,89.31
2023-08-07T08:25:06.026Z,89.43
2023-08-07T08:27:33.116Z,89.26
2023-08-07T08:30:00.428Z,89.31
2023-08-07T08:32:27.883Z,89.36
2023-08-07T08:34:54.995Z,89.42
2023-08-07T08:37:22.135Z,89.92
2023-08-07T08:39:49.653Z,89.95
2023-08-07T08:42:18.913Z,90.11
2023-08-07T08:45:05.832Z,90.19
2023-08-07T08:47:38.213Z,90.15
2023-08-07T08:50:11.170Z,90.20
2023-08-07T08:52:39.978Z,90.22
2023-08-07T08:55:08.037Z,90.01
2023-08-07T08:57:36.840Z,90.02
2023-08-07T09:00:18.991Z,89.71
2023-08-07T09:02:48.104Z,88.69
2023-08-07T09:05:21.208Z,88.54
2023-08-07T09:07:50.026Z,88.81
2023-08-07T09:10:18.604Z,88.99
2023-08-07T09:12:55.802Z,89.17
2023-08-07T09:15:24.834Z,89.28
2023-08-07T09:17:53.915Z,89.53
2023-08-07T09:20:21.283Z,89.91
2023-08-07T09:22:48.249Z,90.06
2023-08-07T09:25:16.142Z,90.52
2023-08-07T09:27:43.485Z,90.69
2023-08-07T09:30:11.607Z,90.99
2023-08-07T09:32:40.344Z,90.73
2023-08-07T09:35:09.927Z,90.42
2023-08-07T09:37:38.437Z,90.40
2023-08-07T09:40:06.333Z,90.03
2023-08-07T09:42:36.602Z,89.68
2023-08-07T09:45:04.262Z,89.64
2023-08-07T09:47:31.462Z,89.81
2023-08-07T09:49:58.474Z,89.51
2023-08-07T09:52:26.547Z,89.45
2023-08-07T09:54:57.814Z,89.44
2023-08-07T09:57:25.055Z,89.06
2023-08-07T09:59:52.621Z,88.53
2023-08-07T10:02:22.277Z,88.01
2023-08-07T10:04:51.862Z,87.88
2023-08-07T10:07:19.319Z,87.75
2023-08-07T10:09:48.035Z,87.87
2023-08-07T10:12:17.340Z,88.10
2023-08-07T10:14:46.028Z,87.86
2023-08-07T10:17:13.287Z,87.93
2023-08-07T10:19:40.563Z,88.23
2023-08-07T10:22:08.017Z,88.30
2023-08-07T10:24:38.143Z,88.35
2023-08-07T10:27:06.760Z,87.67
2023-08-07T10:29:35.211Z,87.96
2023-08-07T10:32:04.091Z,87.65
2023-08-07T10:34:34.497Z,88.01
2023-08-07T10:37:01.490Z,88.48
2023-08-07T10:39:28.503Z,88.59
2023-08-07T10:41:56.583Z,88.73
2023-08-07T10:44:32.436Z,88.85
2023-08-07T10:47:00.124Z,89.06
2023-08-07T10:49:36.567Z,89.15
2023-08-07T10:52:05.512Z,89.03
2023-08-07T10:54:44.126Z,88.88
2023-08-07T10:57:13.996Z,88.77
2023-08-07T11:00:09.799Z,88.13
2023-08-07T11:02:40.915Z,88.01
2023-08-07T11:05:08.541Z,87.66
2023-08-07T11:07:35.679Z,87.17
2023-08-07T11:10:02.727Z,86.86
2023-08-07T11:12:37.650Z,86.93
2023-08-07T11:15:05.248Z,86.73
2023-08-07T11:17:32.421Z,86.50
2023-08-07T11:20:00.257Z,85.79
2023-08-07T11:22:27.354Z,83.68
2023-08-07T11:24:54.773Z,82.46
2023-08-07T11:27:24.684Z,82.66
2023-08-07T11:29:51.942Z,81.99
2023-08-07T11:32:22.239Z,80.33
2023-08-07T11:34:52.099Z,80.53
2023-08-07T11:37:19.344Z,81.07
2023-08-07T11:39:46.303Z,81.60
2023-08-07T11:42:15.054Z,81.54
2023-08-07T11:44:43.163Z,81.42
2023-08-07T11:47:11.465Z,81.54
2023-08-07T11:49:39.385Z,81.42
2023-08-07T11:52:07.257Z,81.34
2023-08-07T11:54:34.598Z,81.90
2023-08-07T11:57:01.707Z,82.32
2023-08-07T11:59:28.774Z,82.59
2023-08-07T12:01:56.427Z,83.11
2023-08-07T12:04:23.798Z,83.23
2023-08-07T12:06:56.671Z,83.31
2023-08-07T12:09:24.386Z,83.14
2023-08-07T12:11:51.336Z,82.86
2023-08-07T12:14:18.810Z,83.04
2023-08-07T12:16:49.281Z,82.93
2023-08-07T12:19:17.769Z,82.67
2023-08-07T12:21:45.340Z,82.71
2023-08-07T12:24:14.586Z,82.44
2023-08-07T12:26:41.697Z,82.29
2023-08-07T12:29:08.653Z,82.11
2023-08-07T12:31:38.819Z,82.51
2023-08-07T12:36:37.098Z,81.75
2023-08-07T12:39:04.326Z,81.80
2023-08-07T12:44:02.746Z,79.96
2023-08-07T12:46:32.316Z,80.13
2023-08-07T12:48:59.803Z,80.17
2023-08-07T12:51:26.962Z,80.16
2023-08-07T12:53:54.837Z,80.16
2023-08-07T12:56:21.824Z,80.03
2023-08-07T12:58:48.841Z,79.76
2023-08-07T13:01:15.872Z,80.04
2023-08-07T13:03:43.341Z,80.07
2023-08-07T13:06:13.053Z,79.51
2023-08-07T13:08:40.841Z,79.38
2023-08-07T13:11:07.901Z,78.74
2023-08-07T13:13:34.843Z,77.93
2023-08-07T13:16:01.895Z,77.43
2023-08-07T13:18:28.962Z,77.12
2023-08-07T13:20:56.010Z,76.91
2023-08-07T13:23:22.956Z,76.88
2023-08-07T13:25:49.906Z,77.03
2023-08-07T13:28:18.090Z,77.63
2023-08-07T13:30:45.173Z,77.83
2023-08-07T13:33:12.200Z,77.52
2023-08-07T13:35:39.256Z,77.56
2023-08-07T13:38:06.668Z,77.55
2023-08-07T13:40:33.899Z,76.43
2023-08-07T13:43:04.305Z,76.03
2023-08-07T13:45:31.294Z,74.12
2023-08-07T13:47:58.276Z,73.28
2023-08-07T13:50:25.581Z,72.68
2023-08-07T13:53:03.902Z,72.98
2023-08-07T13:55:39.627Z,72.91
2023-08-07T13:58:06.777Z,72.79
2023-08-07T14:00:35.970Z,72.57
2023-08-07T14:03:03.118Z,72.10
2023-08-07T14:05:30.290Z,71.92
2023-08-07T14:07:58.973Z,71.19
2023-08-07T14:10:26.029Z,71.12
2023-08-07T14:12:53.015Z,71.46
2023-08-07T14:15:20.342Z,71.16
2023-08-07T14:17:47.578Z,71.51
2023-08-07T14:20:14.768Z,71.95
2023-08-07T14:22:42.624Z,72.06
2023-08-07T14:25:10.320Z,71.28
2023-08-07T14:27:37.344Z,71.02
2023-08-07T14:30:06.680Z,71.57
2023-08-07T14:32:33.750Z,71.71
2023-08-07T14:35:01.065Z,72.10
2023-08-07T14:37:28.140Z,72.14
2023-08-07T14:39:55.060Z,72.67
2023-08-07T14:42:22.121Z,72.91
2023-08-07T14:44:49.268Z,72.99
2023-08-07T14:47:16.383Z,73.03
2023-08-07T14:49:43.943Z,73.32
2023-08-07T14:52:12.146Z,73.53
2023-08-07T14:54:39.223Z,72.66
2023-08-07T14:57:06.222Z,72.89
2023-08-07T14:59:33.428Z,73.21
2023-08-07T15:02:01.179Z,73.22
2023-08-07T15:04:28.618Z,72.44
2023-08-07T15:06:55.826Z,72.76
2023-08-07T15:09:23.095Z,73.25
2023-08-07T15:11:51.388Z,72.89
2023-08-07T15:14:18.632Z,72.53
2023-08-07T15:16:45.872Z,73.05
2023-08-07T15:19:13.442Z,73.16
2023-08-07T15:21:40.400Z,73.14
2023-08-07T15:24:07.453Z,72.99
2023-08-07T15:26:34.556Z,72.87
2023-08-07T15:29:01.763Z,73.37
2023-08-07T15:31:28.821Z,73.61
2023-08-07T15:33:57.517Z,73.52
2023-08-07T15:36:24.562Z,73.12
2023-08-07T15:38:52.430Z,72.79
2023-08-07T15:41:19.585Z,72.95
2023-08-07T15:43:46.539Z,72.61
2023-08-07T15:46:13.690Z,72.07
2023-08-07T15:48:40.877Z,72.23
2023-08-07T15:51:08.108Z,71.95
2023-08-07T15:53:35.169Z,72.55
2023-08-07T15:56:02.319Z,73.11
2023-08-07T15:58:29.789Z,73.47
2023-08-07T16:00:56.832Z,73.58
2023-08-07T16:03:23.932Z,73.28
2023-08-07T16:05:51.038Z,73.43
2023-08-07T16:08:18.202Z,74.04
2023-08-07T16:10:45.288Z,74.97
2023-08-07T16:13:12.340Z,75.57
2023-08-07T16:15:39.543Z,76.15
2023-08-07T16:18:06.714Z,76.83
2023-08-07T16:20:33.718Z,76.89
2023-08-07T16:23:00.776Z,77.46
2023-08-07T16:25:29.008Z,77.47
2023-08-07T16:27:56.051Z,77.06
2023-08-07T16:30:23.104Z,77.96
2023-08-07T16:32:50.136Z,78.96
2023-08-07T16:35:19.275Z,80.34
2023-08-07T16:37:46.308Z,81.60
2023-08-07T16:40:13.573Z,81.10
2023-08-07T16:42:40.938Z,81.62
2023-08-07T16:45:08.553Z,82.41
2023-08-07T16:47:35.665Z,83.00
2023-08-07T16:50:02.806Z,83.24
2023-08-07T16:52:29.819Z,82.71
2023-08-07T16:54:56.922Z,81.92
2023-08-07T16:57:24.118Z,81.14
2023-08-07T16:59:51.567Z,81.12
2023-08-07T17:02:18.742Z,80.93
2023-08-07T17:04:45.841Z,81.72
2023-08-07T17:07:12.910Z,80.92
2023-08-07T17:09:40.361Z,80.50
2023-08-07T17:12:07.966Z,81.00
2023-08-07T17:14:35.092Z,81.34
2023-08-07T17:17:02.132Z,82.01
2023-08-07T17:19:29.086Z,82.10
2023-08-07T17:21:57.668Z,82.17
2023-08-07T17:24:24.724Z,82.69
2023-08-07T17:26:51.675Z,82.91
2023-08-07T17:29:18.725Z,83.50
2023-08-07T17:31:45.674Z,83.46
2023-08-07T17:34:13.035Z,82.99
2023-08-07T17:36:40.391Z,83.37
2023-08-07T17:39:07.567Z,83.76
2023-08-07T17:41:34.448Z,83.95
2023-08-07T17:44:01.453Z,83.65
2023-08-07T17:46:28.657Z,83.27
2023-08-07T17:48:55.973Z,83.28
2023-08-07T17:51:23.025Z,83.13
2023-08-07T17:53:50.082Z,83.06
2023-08-07T17:56:17.245Z,82.95
2023-08-07T17:58:44.244Z,82.92
2023-08-07T18:01:11.284Z,83.07
2023-08-07T18:03:38.410Z,83.19
2023-08-07T18:06:05.566Z,83.47
2023-08-07T18:08:32.616Z,83.62
2023-08-07T18:10:59.660Z,83.77
2023-08-07T18:13:26.713Z,84.28
2023-08-07T18:15:53.769Z,84.96
2023-08-07T18:18:20.931Z,84.73
2023-08-07T18:20:48.309Z,85.01
2023-08-07T18:23:15.489Z,86.30
2023-08-07T18:25:42.651Z,86.64
2023-08-07T18:28:10.089Z,86.29
2023-08-07T18:30:37.272Z,85.75
2023-08-07T18:33:04.695Z,85.30
2023-08-07T18:35:31.834Z,85.95
2023-08-07T18:37:58.919Z,87.00
2023-08-07T18:40:26.154Z,86.76
2023-08-07T18:42:53.303Z,86.48
2023-08-07T18:45:20.352Z,86.70
2023-08-07T18:47:47.530Z,87.07
2023-08-07T18:50:14.663Z,87.70
2023-08-07T18:52:41.670Z,88.28
2023-08-07T18:55:09.250Z,87.96
2023-08-07T18:57:37.464Z,87.80
2023-08-07T19:00:07.192Z,87.91
2023-08-07T19:02:34.465Z,88.19
2023-08-07T19:05:01.591Z,88.68
2023-08-07T19:07:28.638Z,89.12
2023-08-07T19:09:57.867Z,89.46
2023-08-07T19:12:25.003Z,89.90
2023-08-07T19:14:52.052Z,89.82
2023-08-07T19:17:19.104Z,89.84
2023-08-07T19:19:46.162Z,90.87
2023-08-07T19:22:13.205Z,91.81
2023-08-07T19:24:41.233Z,92.20
2023-08-07T19:27:08.237Z,92.77
2023-08-07T19:29:35.393Z,91.96
2023-08-07T19:32:02.381Z,91.49
2023-08-07T19:34:29.504Z,90.85
2023-08-07T19:36:56.672Z,90.55
2023-08-07T19:39:24.940Z,90.45
2023-08-07T19:41:52.079Z,90.86
2023-08-07T19:44:19.072Z,90.80
2023-08-07T19:46:46.405Z,91.09
2023-08-07T19:49:13.558Z,91.50
2023-08-07T19:51:40.713Z,91.07
2023-08-07T19:54:07.758Z,91.23
2023-08-07T19:56:36.770Z,91.79
2023-08-07T19:59:05.604Z,91.74
2023-08-07T20:01:33.700Z,91.02
2023-08-07T20:04:01.276Z,91.09
2023-08-07T20:06:35.912Z,91.52
2023-08-07T20:09:03.650Z,91.65
2023-08-07T20:11:37.496Z,90.74
2023-08-07T20:14:05.197Z,90.26
2023-08-07T20:16:33.456Z,90.17
2023-08-07T20:19:00.986Z,90.14
2023-08-07T20:21:28.373Z,90.12
2023-08-07T20:23:55.535Z,90.29
2023-08-07T20:26:22.944Z,90.50
2023-08-07T20:28:50.249Z,91.53
2023-08-07T20:31:17.850Z,92.09
2023-08-07T20:33:45.019Z,92.16
2023-08-07T20:36:12.023Z,92.38
2023-08-07T20:38:38.988Z,92.83
2023-08-07T20:41:06.084Z,93.48
2023-08-07T20:43:33.625Z,93.80
2023-08-07T20:46:00.650Z,93.83
2023-08-07T20:48:28.216Z,94.39
2023-08-07T20:50:55.379Z,94.45
2023-08-07T20:53:23.400Z,94.25
2023-08-07T20:55:50.389Z,93.30
2023-08-07T20:58:17.450Z,93.04
2023-08-07T21:00:44.629Z,92.80
2023-08-07T21:03:11.663Z,92.69
2023-08-07T21:05:38.708Z,92.70
2023-08-07T21:08:06.070Z,92.96
2023-08-07T21:10:33.326Z,92.68
2023-08-07T21:13:00.383Z,92.77
2023-08-07T21:15:27.430Z,93.64
2023-08-07T21:17:54.526Z,93.68
2023-08-07T21:20:21.671Z,93.90
2023-08-07T21:22:48.808Z,94.10
2023-08-07T21:25:15.857Z,94.06
2023-08-07T21:27:44.030Z,94.54
2023-08-07T21:30:12.846Z,95.88
2023-08-07T21:32:45.092Z,96.44
2023-08-07T21:35:13.420Z,97.66
2023-08-07T21:37:41.700Z,98.31
2023-08-07T21:40:10.280Z,97.93
2023-08-07T21:42:38.533Z,97.23
2023-08-07T21:45:07.027Z,97.22
2023-08-07T21:47:34.086Z,97.24
2023-08-07T21:50:01.123Z,97.56
2023-08-07T21:52:28.277Z,97.89
2023-08-07T21:54:55.634Z,99.03
2023-08-07T21:57:25.673Z,99.62
2023-08-07T21:59:52.520Z,99.94
2023-08-07T22:02:19.564Z,100.00
2023-08-07T22:04:46.664Z,100.00
2023-08-07T22:07:13.780Z,100.00
2023-08-07T22:09:40.828Z,100.00
2023-08-07T22:12:08.399Z,100.00
2023-08-07T22:14:36.268Z,100.00
2023-08-07T22:17:03.932Z,100.00
2023-08-07T22:19:30.988Z,100.00
2023-08-07T22:21:58.206Z,100.00
2023-08-07T22:24:25.495Z,100.00
2023-08-07T22:26:52.548Z,100.00
2023-08-07T22:29:19.536Z,100.00
2023-08-07T22:31:46.574Z,100.00
2023-08-07T22:34:13.626Z,100.00
2023-08-07T22:36:41.020Z,100.00
2023-08-07T22:39:08.131Z,100.00
2023-08-07T22:41:35.283Z,100.00
2023-08-07T22:44:02.477Z,100.00
2023-08-07T22:46:29.623Z,100.00
2023-08-07T22:48:56.848Z,99.96
2023-08-07T22:51:24.956Z,99.70
2023-08-07T22:53:52.042Z,99.90
2023-08-07T22:56:19.134Z,99.94
2023-08-07T22:58:46.225Z,99.22
2023-08-07T23:01:13.679Z,98.84
2023-08-07T23:03:42.881Z,98.84
2023-08-07T23:06:11.640Z,98.12
2023-08-07T23:08:38.697Z,98.31
2023-08-07T23:11:05.877Z,98.81
2023-08-07T23:13:32.802Z,99.80
2023-08-07T23:15:59.827Z,100.00
2023-08-07T23:18:27.192Z,99.79
2023-08-07T23:20:54.271Z,99.94
2023-08-07T23:23:21.322Z,100.00
2023-08-07T23:25:48.376Z,99.94
2023-08-07T23:28:15.427Z,99.71
2023-08-07T23:30:42.304Z,99.46
2023-08-07T23:33:09.323Z,99.71
2023-08-07T23:35:36.382Z,99.75
2023-08-07T23:38:04.670Z,99.85
2023-08-07T23:40:31.716Z,100.00
2023-08-07T23:42:59.806Z,100.00
2023-08-07T23:45:26.844Z,100.00
2023-08-07T23:47:53.934Z,100.00
2023-08-07T23:50:21.374Z,100.00
2023-08-07T23:52:48.629Z,100.00
2023-08-07T23:55:15.990Z,100.00
2023-08-07T23:57:43.257Z,100.00
